createdAt,value
2018-09-30T00:01:27.895Z,99.90
2018-09-30T00:03:55.638Z,99.90
2018-09-30T00:06:23.358Z,99.90
2018-09-30T00:08:51.130Z,99.90
2018-09-30T00:11:18.848Z,99.90
2018-09-30T00:13:46.662Z,99.90
2018-09-30T00:16:14.844Z,99.90
2018-09-30T00:18:42.622Z,99.90
2018-09-30T00:21:10.361Z,99.90
2018-09-30T00:23:43.597Z,99.90
2018-09-30T00:26:16.764Z,99.90
2018-09-30T00:28:44.577Z,99.90
2018-09-30T00:31:12.295Z,99.90
2018-09-30T00:33:45.641Z,99.90
2018-09-30T00:36:13.413Z,99.90
2018-09-30T00:38:41.125Z,99.90
2018-09-30T00:41:08.993Z,99.90
2018-09-30T00:43:36.751Z,99.90
2018-09-30T00:46:04.537Z,99.90
2018-09-30T00:48:32.246Z,99.90
2018-09-30T00:51:00.214Z,99.90
2018-09-30T00:53:28.025Z,99.90
2018-09-30T00:55:55.769Z,99.90
2018-09-30T00:58:23.566Z,99.90
2018-09-30T01:00:52.109Z,99.90
2018-09-30T01:03:19.867Z,99.90
2018-09-30T01:05:47.633Z,99.90
2018-09-30T01:08:15.350Z,99.90
2018-09-30T01:10:43.111Z,99.90
2018-09-30T01:13:10.882Z,99.90
2018-09-30T01:15:38.698Z,99.90
2018-09-30T01:18:06.422Z,99.90
2018-09-30T01:20:34.421Z,99.90
2018-09-30T01:23:02.170Z,99.90
2018-09-30T01:25:29.957Z,99.90
2018-09-30T01:27:58.628Z,99.90
2018-09-30T01:30:26.958Z,99.90
2018-09-30T01:32:54.681Z,99.90
2018-09-30T01:35:22.459Z,99.90
2018-09-30T01:37:50.181Z,99.90
2018-09-30T01:40:17.917Z,99.90
2018-09-30T01:42:45.665Z,99.90
2018-09-30T01:45:13.386Z,99.90
2018-09-30T01:47:41.153Z,99.90
2018-09-30T01:50:08.946Z,99.90
2018-09-30T01:52:51.897Z,99.90
2018-09-30T01:55:19.837Z,99.90
2018-09-30T01:57:47.605Z,99.90
2018-09-30T02:00:15.581Z,99.90
2018-09-30T02:02:43.345Z,99.90
2018-09-30T02:05:11.057Z,99.90
2018-09-30T02:07:38.806Z,99.90
2018-09-30T02:10:06.549Z,99.90
2018-09-30T02:12:34.628Z,99.90
2018-09-30T02:15:02.593Z,99.90
2018-09-30T02:17:30.352Z,99.90
2018-09-30T02:19:58.213Z,99.90
2018-09-30T02:22:26.413Z,99.90
2018-09-30T02:24:54.144Z,99.90
2018-09-30T02:27:21.886Z,99.90
2018-09-30T02:29:49.710Z,99.90
2018-09-30T02:32:18.018Z,99.90
2018-09-30T02:34:45.730Z,99.90
2018-09-30T02:37:13.467Z,99.90
2018-09-30T02:39:41.242Z,99.90
2018-09-30T02:42:09.224Z,99.90
2018-09-30T02:44:36.940Z,99.90
2018-09-30T02:47:04.653Z,99.90
2018-09-30T02:49:32.405Z,99.90
2018-09-30T02:52:00.141Z,99.90
2018-09-30T02:54:28.393Z,99.90
2018-09-30T02:56:56.122Z,99.90
2018-09-30T02:59:23.861Z,99.90
2018-09-30T03:01:51.831Z,99.90
2018-09-30T03:04:19.748Z,99.90
2018-09-30T03:06:52.978Z,99.90
2018-09-30T03:09:20.756Z,99.90
2018-09-30T03:11:48.470Z,99.90
2018-09-30T03:14:16.938Z,99.90
2018-09-30T03:16:45.466Z,99.90
2018-09-30T03:19:13.754Z,99.90
2018-09-30T03:21:41.501Z,99.90
2018-09-30T03:24:09.833Z,99.90
2018-09-30T03:26:37.717Z,99.90
2018-09-30T03:29:06.062Z,99.90
2018-09-30T03:31:33.989Z,99.90
2018-09-30T03:34:01.751Z,99.90
2018-09-30T03:36:29.501Z,99.90
2018-09-30T03:38:57.909Z,99.90
2018-09-30T03:41:26.126Z,99.90
2018-09-30T03:43:53.865Z,99.90
2018-09-30T03:46:21.610Z,99.90
2018-09-30T03:48:49.382Z,99.90
2018-09-30T03:51:17.145Z,99.90
2018-09-30T03:53:44.972Z,99.90
2018-09-30T03:56:12.689Z,99.90
2018-09-30T03:58:40.423Z,99.90
2018-09-30T04:01:08.193Z,99.90
2018-09-30T04:03:37.221Z,99.90
2018-09-30T04:06:04.934Z,99.90
2018-09-30T04:08:32.657Z,99.90
2018-09-30T04:11:00.363Z,99.90
2018-09-30T04:13:28.094Z,99.90
2018-09-30T04:15:55.932Z,99.90
2018-09-30T04:18:23.670Z,99.90
2018-09-30T04:20:51.645Z,99.90
2018-09-30T04:23:19.390Z,99.90
2018-09-30T04:25:47.105Z,99.90
2018-09-30T04:28:14.867Z,99.90
2018-09-30T04:30:42.572Z,99.90
2018-09-30T04:33:10.973Z,99.90
2018-09-30T04:35:38.653Z,99.90
2018-09-30T04:38:06.413Z,99.90
2018-09-30T04:40:34.135Z,99.90
2018-09-30T04:43:02.577Z,99.90
2018-09-30T04:45:30.301Z,99.90
2018-09-30T04:47:58.049Z,99.90
2018-09-30T04:50:25.746Z,99.90
2018-09-30T04:52:53.497Z,99.90
2018-09-30T04:55:21.201Z,99.90
2018-09-30T04:57:48.897Z,99.90
2018-09-30T05:00:16.625Z,99.90
2018-09-30T05:02:44.326Z,99.90
2018-09-30T05:05:12.096Z,99.90
2018-09-30T05:07:39.805Z,99.90
2018-09-30T05:10:07.542Z,99.90
2018-09-30T05:12:35.250Z,99.90
2018-09-30T05:15:03.022Z,99.90
2018-09-30T05:17:31.208Z,99.90
2018-09-30T05:19:58.936Z,99.90
2018-09-30T05:22:26.645Z,99.90
2018-09-30T05:24:54.380Z,99.90
2018-09-30T05:27:22.142Z,99.90
2018-09-30T05:29:49.913Z,99.90
2018-09-30T05:32:17.617Z,99.90
2018-09-30T05:34:45.353Z,99.90
2018-09-30T05:37:13.136Z,99.90
2018-09-30T05:39:40.833Z,99.90
2018-09-30T05:42:08.668Z,99.90
2018-09-30T05:44:36.514Z,99.90
2018-09-30T05:47:04.274Z,99.90
2018-09-30T05:49:31.979Z,99.90
2018-09-30T05:51:59.737Z,99.90
2018-09-30T05:54:28.058Z,99.90
2018-09-30T05:56:55.857Z,99.90
2018-09-30T05:59:23.565Z,99.90
2018-09-30T06:01:51.901Z,99.90
2018-09-30T06:04:19.615Z,99.90
2018-09-30T06:06:47.333Z,99.90
2018-09-30T06:09:16.048Z,99.90
2018-09-30T06:11:47.134Z,99.90
2018-09-30T06:14:15.799Z,99.90
2018-09-30T06:16:43.725Z,99.90
2018-09-30T06:19:11.486Z,99.90
2018-09-30T06:21:40.173Z,99.90
2018-09-30T06:24:09.070Z,99.90
2018-09-30T06:26:39.408Z,99.90
2018-09-30T06:29:07.291Z,99.90
2018-09-30T06:31:36.716Z,99.90
2018-09-30T06:34:05.930Z,99.90
2018-09-30T06:36:34.503Z,99.90
2018-09-30T06:39:03.113Z,99.90
2018-09-30T06:41:33.999Z,99.90
2018-09-30T06:44:02.908Z,99.90
2018-09-30T06:46:32.018Z,99.90
2018-09-30T06:49:01.288Z,99.30
2018-09-30T06:51:29.576Z,98.20
2018-09-30T06:53:59.814Z,96.50
2018-09-30T06:56:28.921Z,96.30
2018-09-30T06:58:58.206Z,95.20
2018-09-30T07:01:27.495Z,96.60
2018-09-30T07:03:55.233Z,94.00
2018-09-30T07:06:22.986Z,91.60
2018-09-30T07:08:51.293Z,91.00
2018-09-30T07:11:21.274Z,88.20
2018-09-30T07:13:50.699Z,86.60
2018-09-30T07:16:20.233Z,85.00
2018-09-30T07:18:49.342Z,83.10
2018-09-30T07:21:18.613Z,80.80
2018-09-30T07:23:46.862Z,81.20
2018-09-30T07:26:16.730Z,78.00
2018-09-30T07:28:45.665Z,72.50
2018-09-30T07:31:19.319Z,73.80
2018-09-30T07:33:49.167Z,72.70
2018-09-30T07:36:19.340Z,70.40
2018-09-30T07:38:49.002Z,71.50
2018-09-30T07:41:18.964Z,72.50
2018-09-30T07:43:47.918Z,72.00
2018-09-30T07:46:17.181Z,74.30
2018-09-30T07:48:44.998Z,69.80
2018-09-30T07:51:14.388Z,69.20
2018-09-30T07:53:43.772Z,63.10
2018-09-30T07:56:12.806Z,60.10
2018-09-30T07:58:43.268Z,59.10
2018-09-30T08:01:13.937Z,62.90
2018-09-30T08:03:43.065Z,59.00
2018-09-30T08:06:12.395Z,57.10
2018-09-30T08:08:41.430Z,58.20
2018-09-30T08:11:10.902Z,56.70
2018-09-30T08:13:39.569Z,56.90
2018-09-30T08:16:08.599Z,55.70
2018-09-30T08:18:36.375Z,57.60
2018-09-30T08:21:05.545Z,57.70
2018-09-30T08:23:34.754Z,59.80
2018-09-30T08:26:04.398Z,58.00
2018-09-30T08:28:32.969Z,55.10
2018-09-30T08:31:00.745Z,57.20
2018-09-30T08:33:29.549Z,54.70
2018-09-30T08:36:03.244Z,54.80
2018-09-30T08:38:34.441Z,53.60
2018-09-30T08:41:06.043Z,58.80
2018-09-30T08:43:36.266Z,61.00
2018-09-30T08:46:06.939Z,60.90
2018-09-30T08:48:36.606Z,56.70
2018-09-30T08:51:06.084Z,57.80
2018-09-30T08:53:34.996Z,59.20
2018-09-30T08:56:04.985Z,55.00
2018-09-30T08:58:34.289Z,55.70
2018-09-30T09:01:02.191Z,56.40
2018-09-30T09:03:30.057Z,57.00
2018-09-30T09:05:59.238Z,55.10
2018-09-30T09:08:29.651Z,56.60
2018-09-30T09:10:58.030Z,57.60
2018-09-30T09:13:27.983Z,55.40
2018-09-30T09:15:55.801Z,54.40
2018-09-30T09:18:23.526Z,54.80
2018-09-30T09:20:51.257Z,54.80
2018-09-30T09:23:18.966Z,53.60
2018-09-30T09:25:46.716Z,53.30
2018-09-30T09:28:14.456Z,54.00
2018-09-30T09:30:42.193Z,56.40
2018-09-30T09:33:09.906Z,54.90
2018-09-30T09:35:38.329Z,54.30
2018-09-30T09:38:06.216Z,54.20
2018-09-30T09:40:33.957Z,51.90
2018-09-30T09:43:01.689Z,52.30
2018-09-30T09:45:29.461Z,53.80
2018-09-30T09:47:57.816Z,53.50
2018-09-30T09:50:25.617Z,52.60
2018-09-30T09:52:53.325Z,54.50
2018-09-30T09:55:21.061Z,54.30
2018-09-30T09:57:48.772Z,53.10
2018-09-30T10:00:22.128Z,53.00
2018-09-30T10:02:49.826Z,51.10
2018-09-30T10:05:17.640Z,51.00
2018-09-30T10:07:45.281Z,51.50
2018-09-30T10:10:13.053Z,52.90
2018-09-30T10:12:40.783Z,51.00
2018-09-30T10:15:08.557Z,53.40
2018-09-30T10:17:36.297Z,52.20
2018-09-30T10:20:04.130Z,50.50
2018-09-30T10:22:41.957Z,50.00
2018-09-30T10:25:09.700Z,49.90
2018-09-30T10:27:37.410Z,50.30
2018-09-30T10:30:05.240Z,50.60
2018-09-30T10:32:32.953Z,51.40
2018-09-30T10:35:00.758Z,51.00
2018-09-30T10:37:28.490Z,54.20
2018-09-30T10:39:56.213Z,51.90
2018-09-30T10:42:23.985Z,50.70
2018-09-30T10:44:51.692Z,51.40
2018-09-30T10:47:19.417Z,50.30
2018-09-30T10:49:47.129Z,49.40
2018-09-30T10:52:15.721Z,51.70
2018-09-30T10:54:43.442Z,52.80
2018-09-30T10:57:11.225Z,53.90
2018-09-30T10:59:38.929Z,52.50
2018-09-30T11:02:06.673Z,55.00
2018-09-30T11:04:34.494Z,57.60
2018-09-30T11:07:02.633Z,56.10
2018-09-30T11:09:30.469Z,54.70
2018-09-30T11:11:58.229Z,57.90
2018-09-30T11:14:25.957Z,58.60
2018-09-30T11:16:53.707Z,59.20
2018-09-30T11:19:21.469Z,59.60
2018-09-30T11:21:49.206Z,59.00
2018-09-30T11:24:16.917Z,58.60
2018-09-30T11:26:44.665Z,59.70
2018-09-30T11:29:12.392Z,59.20
2018-09-30T11:31:40.513Z,58.90
2018-09-30T11:34:08.356Z,59.30
2018-09-30T11:36:36.098Z,57.30
2018-09-30T11:39:05.045Z,59.40
2018-09-30T11:41:32.797Z,59.90
2018-09-30T11:44:00.524Z,58.80
2018-09-30T11:46:28.287Z,58.30
2018-09-30T11:48:55.996Z,57.40
2018-09-30T11:51:23.808Z,58.20
2018-09-30T11:53:51.514Z,59.60
2018-09-30T11:56:19.400Z,60.20
2018-09-30T11:58:47.108Z,56.10
2018-09-30T12:01:14.890Z,57.20
2018-09-30T12:03:42.574Z,54.80
2018-09-30T12:06:10.353Z,57.40
2018-09-30T12:08:38.070Z,58.80
2018-09-30T12:11:06.109Z,57.10
2018-09-30T12:13:33.854Z,58.40
2018-09-30T12:16:01.725Z,59.30
2018-09-30T12:18:29.497Z,60.40
2018-09-30T12:20:57.201Z,59.80
2018-09-30T12:23:24.928Z,59.00
2018-09-30T12:25:52.715Z,60.90
2018-09-30T12:28:20.402Z,60.90
2018-09-30T12:30:48.163Z,62.10
2018-09-30T12:33:15.868Z,61.90
2018-09-30T12:35:43.641Z,61.20
2018-09-30T12:38:11.361Z,61.60
2018-09-30T12:40:39.141Z,62.60
2018-09-30T12:43:06.933Z,62.20
2018-09-30T12:45:34.678Z,62.10
2018-09-30T12:48:02.385Z,62.50
2018-09-30T12:50:30.122Z,62.20
2018-09-30T12:52:57.891Z,60.90
2018-09-30T12:55:25.638Z,60.40
2018-09-30T12:57:53.400Z,61.80
2018-09-30T13:00:21.174Z,62.80
2018-09-30T13:02:49.021Z,62.60
2018-09-30T13:05:16.833Z,61.40
2018-09-30T13:07:44.552Z,63.00
2018-09-30T13:10:12.309Z,61.40
2018-09-30T13:12:40.506Z,61.20
2018-09-30T13:15:08.309Z,63.50
2018-09-30T13:17:36.013Z,63.20
2018-09-30T13:20:03.845Z,61.40
2018-09-30T13:22:31.558Z,61.70
2018-09-30T13:24:59.328Z,63.40
2018-09-30T13:27:27.082Z,62.50
2018-09-30T13:29:54.821Z,62.00
2018-09-30T13:32:22.518Z,62.40
2018-09-30T13:34:50.254Z,62.60
2018-09-30T13:37:17.958Z,63.10
2018-09-30T13:39:45.689Z,64.20
2018-09-30T13:42:13.421Z,63.10
2018-09-30T13:44:41.157Z,62.10
2018-09-30T13:47:08.892Z,62.00
2018-09-30T13:49:36.638Z,63.80
2018-09-30T13:52:04.745Z,62.90
2018-09-30T13:54:32.645Z,60.20
2018-09-30T13:57:00.404Z,60.40
2018-09-30T13:59:28.134Z,61.70
2018-09-30T14:01:55.845Z,63.10
2018-09-30T14:04:23.589Z,62.30
2018-09-30T14:06:51.340Z,63.60
2018-09-30T14:09:19.091Z,63.80
2018-09-30T14:11:46.817Z,64.30
2018-09-30T14:14:14.578Z,63.40
2018-09-30T14:16:42.885Z,64.20
2018-09-30T14:19:10.670Z,64.10
2018-09-30T14:21:38.416Z,64.80
2018-09-30T14:24:06.361Z,64.60
2018-09-30T14:26:34.102Z,63.60
2018-09-30T14:29:01.853Z,64.30
2018-09-30T14:31:29.578Z,64.50
2018-09-30T14:33:57.322Z,65.50
2018-09-30T14:36:26.196Z,64.90
2018-09-30T14:38:53.988Z,65.70
2018-09-30T14:41:22.441Z,67.00
2018-09-30T14:43:50.165Z,67.50
2018-09-30T14:46:17.866Z,68.70
2018-09-30T14:48:45.633Z,68.20
2018-09-30T14:51:13.564Z,66.60
2018-09-30T14:53:41.308Z,67.90
2018-09-30T14:56:09.054Z,68.50
2018-09-30T14:58:36.798Z,69.20
2018-09-30T15:01:04.516Z,70.70
2018-09-30T15:03:33.572Z,70.80
2018-09-30T15:06:01.366Z,70.80
2018-09-30T15:08:29.282Z,69.10
2018-09-30T15:10:57.100Z,72.20
2018-09-30T15:13:24.837Z,72.80
2018-09-30T15:15:52.581Z,73.50
2018-09-30T15:18:20.349Z,74.60
2018-09-30T15:20:48.068Z,74.40
2018-09-30T15:23:15.835Z,73.30
2018-09-30T15:25:43.937Z,73.60
2018-09-30T15:28:12.259Z,73.70
2018-09-30T15:30:40.014Z,75.30
2018-09-30T15:33:07.781Z,75.70
2018-09-30T15:35:36.201Z,75.70
2018-09-30T15:38:03.937Z,76.20
2018-09-30T15:40:31.649Z,79.00
2018-09-30T15:42:59.495Z,78.20
2018-09-30T15:45:27.116Z,77.40
2018-09-30T15:47:54.884Z,77.30
2018-09-30T15:50:22.597Z,78.30
2018-09-30T15:52:50.369Z,79.10
2018-09-30T15:55:18.082Z,79.10
2018-09-30T15:57:45.850Z,80.50
2018-09-30T16:00:13.589Z,82.10
2018-09-30T16:02:41.345Z,82.60
2018-09-30T16:05:09.080Z,82.80
2018-09-30T16:07:36.818Z,83.70
2018-09-30T16:10:04.598Z,84.70
2018-09-30T16:12:32.369Z,85.10
2018-09-30T16:15:00.192Z,86.80
2018-09-30T16:17:27.987Z,88.00
2018-09-30T16:19:55.685Z,88.90
2018-09-30T16:22:23.386Z,90.00
2018-09-30T16:24:51.939Z,90.50
2018-09-30T16:27:20.525Z,91.00
2018-09-30T16:29:48.798Z,91.70
2018-09-30T16:32:16.543Z,92.10
2018-09-30T16:34:44.294Z,92.40
2018-09-30T16:37:12.014Z,93.00
2018-09-30T16:39:39.737Z,93.00
2018-09-30T16:42:07.429Z,93.30
2018-09-30T16:44:35.943Z,93.90
2018-09-30T16:47:04.158Z,94.50
2018-09-30T16:49:31.893Z,95.10
2018-09-30T16:51:59.598Z,95.70
2018-09-30T16:54:27.333Z,96.30
2018-09-30T16:56:55.533Z,96.90
2018-09-30T16:59:23.967Z,97.70
2018-09-30T17:01:51.690Z,98.30
2018-09-30T17:04:19.425Z,98.80
2018-09-30T17:06:48.152Z,99.50
2018-09-30T17:09:16.762Z,99.90
2018-09-30T17:11:44.621Z,99.90
2018-09-30T17:14:12.682Z,99.90
2018-09-30T17:16:41.215Z,99.90
2018-09-30T17:19:10.014Z,99.90
2018-09-30T17:21:37.734Z,99.90
2018-09-30T17:24:06.446Z,99.90
2018-09-30T17:26:34.461Z,99.90
2018-09-30T17:29:02.960Z,99.90
2018-09-30T17:31:31.690Z,99.90
2018-09-30T17:34:01.989Z,99.90
2018-09-30T17:36:29.733Z,99.90
2018-09-30T17:38:57.457Z,99.90
2018-09-30T17:41:26.271Z,99.90
2018-09-30T17:43:54.855Z,99.90
2018-09-30T17:46:22.953Z,99.90
2018-09-30T17:48:51.704Z,99.90
2018-09-30T17:51:19.414Z,99.90
2018-09-30T17:53:47.673Z,99.90
2018-09-30T17:56:15.414Z,99.90
2018-09-30T17:58:43.229Z,99.90
2018-09-30T18:01:15.277Z,99.90
2018-09-30T18:03:43.066Z,99.90
2018-09-30T18:06:10.966Z,99.90
2018-09-30T18:08:38.709Z,99.90
2018-09-30T18:11:06.730Z,99.90
2018-09-30T18:13:34.417Z,99.90
2018-09-30T18:16:02.155Z,99.90
2018-09-30T18:18:30.525Z,99.90
2018-09-30T18:20:58.281Z,99.90
2018-09-30T18:23:26.546Z,99.90
2018-09-30T18:25:54.285Z,99.90
2018-09-30T18:28:22.009Z,99.90
2018-09-30T18:30:49.985Z,99.90
2018-09-30T18:33:17.716Z,99.90
2018-09-30T18:35:45.420Z,99.90
2018-09-30T18:38:13.197Z,99.90
2018-09-30T18:40:45.211Z,99.90
2018-09-30T18:43:13.446Z,99.90
2018-09-30T18:45:41.177Z,99.90
2018-09-30T18:48:09.475Z,99.90
2018-09-30T18:50:38.232Z,99.90
2018-09-30T18:53:06.269Z,99.90
2018-09-30T18:55:34.741Z,99.90
2018-09-30T18:58:03.461Z,99.90
2018-09-30T19:00:32.373Z,99.90
2018-09-30T19:03:01.054Z,99.90
2018-09-30T19:05:29.888Z,99.90
2018-09-30T19:07:58.979Z,99.90
2018-09-30T19:10:27.602Z,99.90
2018-09-30T19:12:55.777Z,99.90
2018-09-30T19:15:23.559Z,99.90
2018-09-30T19:17:51.298Z,99.90
2018-09-30T19:20:19.813Z,99.90
2018-09-30T19:22:47.723Z,99.90
2018-09-30T19:25:15.440Z,99.90
2018-09-30T19:27:43.157Z,99.90
2018-09-30T19:30:10.882Z,99.90
2018-09-30T19:32:38.605Z,99.90
2018-09-30T19:35:06.337Z,99.90
2018-09-30T19:37:34.435Z,99.90
2018-09-30T19:40:02.866Z,99.90
2018-09-30T19:42:31.361Z,99.90
2018-09-30T19:44:59.563Z,99.90
2018-09-30T19:47:27.288Z,99.90
2018-09-30T19:49:55.703Z,99.90
2018-09-30T19:52:23.451Z,99.90
2018-09-30T19:54:51.444Z,99.90
2018-09-30T19:57:19.141Z,99.90
2018-09-30T19:59:46.897Z,99.90
2018-09-30T20:02:14.614Z,99.90
2018-09-30T20:04:42.545Z,99.90
2018-09-30T20:07:11.480Z,99.90
2018-09-30T20:09:39.251Z,99.90
2018-09-30T20:12:06.976Z,99.90
2018-09-30T20:14:34.706Z,99.90
2018-09-30T20:17:02.482Z,99.90
2018-09-30T20:19:31.084Z,99.90
2018-09-30T20:21:59.354Z,99.90
2018-09-30T20:24:27.097Z,99.90
2018-09-30T20:26:55.744Z,99.90
2018-09-30T20:29:23.477Z,99.90
2018-09-30T20:31:51.211Z,99.90
2018-09-30T20:34:18.916Z,99.90
2018-09-30T20:36:46.654Z,99.90
2018-09-30T20:39:14.355Z,99.90
2018-09-30T20:41:42.097Z,99.90
2018-09-30T20:44:09.805Z,99.90
2018-09-30T20:46:37.549Z,99.90
2018-09-30T20:49:05.329Z,99.90
2018-09-30T20:51:33.036Z,99.90
2018-09-30T20:54:00.753Z,99.90
2018-09-30T20:56:28.510Z,99.90
2018-09-30T20:58:56.225Z,99.90
2018-09-30T21:01:24.074Z,99.90
2018-09-30T21:03:51.773Z,99.90
2018-09-30T21:06:21.221Z,99.90
2018-09-30T21:08:48.925Z,99.90
2018-09-30T21:11:16.681Z,99.90
2018-09-30T21:13:44.405Z,99.90
2018-09-30T21:16:12.609Z,99.90
2018-09-30T21:18:40.467Z,99.90
2018-09-30T21:21:08.165Z,99.90
2018-09-30T21:23:36.369Z,99.90
2018-09-30T21:26:04.109Z,99.90
2018-09-30T21:28:31.817Z,99.90
2018-09-30T21:30:59.662Z,99.90
2018-09-30T21:33:27.373Z,99.90
2018-09-30T21:35:55.109Z,99.90
2018-09-30T21:38:22.814Z,99.90
2018-09-30T21:40:50.665Z,99.90
2018-09-30T21:43:18.886Z,99.90
2018-09-30T21:45:46.671Z,99.90
2018-09-30T21:48:16.621Z,99.90
2018-09-30T21:50:44.406Z,99.90
2018-09-30T21:53:12.701Z,99.90
2018-09-30T21:55:40.709Z,99.90
2018-09-30T21:58:08.637Z,99.90
2018-09-30T22:00:39.597Z,99.90
2018-09-30T22:03:09.284Z,99.90
2018-09-30T22:05:37.381Z,99.90
2018-09-30T22:08:06.136Z,99.90
2018-09-30T22:10:33.882Z,99.90
2018-09-30T22:13:01.594Z,99.90
2018-09-30T22:15:29.398Z,99.90
2018-09-30T22:17:57.109Z,99.90
2018-09-30T22:20:24.847Z,99.90
2018-09-30T22:22:52.553Z,99.90
2018-09-30T22:25:20.293Z,99.90
2018-09-30T22:27:48.032Z,99.90
2018-09-30T22:30:15.849Z,99.90
2018-09-30T22:32:44.298Z,99.90
2018-09-30T22:35:12.026Z,99.90
2018-09-30T22:37:39.729Z,99.90
2018-09-30T22:40:07.837Z,99.90
2018-09-30T22:42:35.821Z,99.90
2018-09-30T22:45:04.365Z,99.90
2018-09-30T22:47:32.078Z,99.90
2018-09-30T22:49:59.873Z,99.90
2018-09-30T22:52:28.321Z,99.90
2018-09-30T22:54:56.055Z,99.90
2018-09-30T22:57:23.765Z,99.90
2018-09-30T22:59:51.518Z,99.90
2018-09-30T23:02:19.216Z,99.90
2018-09-30T23:04:46.954Z,99.90
2018-09-30T23:07:14.653Z,99.90
2018-09-30T23:09:42.385Z,99.90
2018-09-30T23:12:10.104Z,99.90
2018-09-30T23:14:37.864Z,99.90
2018-09-30T23:17:05.969Z,99.90
2018-09-30T23:19:33.674Z,99.90
2018-09-30T23:22:01.441Z,99.90
2018-09-30T23:24:29.200Z,99.90
2018-09-30T23:26:56.956Z,99.90
2018-09-30T23:29:24.652Z,99.90
2018-09-30T23:31:52.373Z,99.90
2018-09-30T23:34:20.073Z,99.90
2018-09-30T23:36:47.802Z,99.90
2018-09-30T23:39:15.493Z,99.90
2018-09-30T23:41:43.214Z,99.90
2018-09-30T23:44:10.958Z,99.90
2018-09-30T23:46:38.694Z,99.90
2018-09-30T23:49:06.691Z,99.90
2018-09-30T23:51:34.697Z,99.90
2018-09-30T23:54:02.430Z,99.90
2018-09-30T23:56:30.161Z,99.90
2018-09-30T23:58:57.879Z,99.90
